MAPA DE AEROPUERTO

INFORMACIÓN METAR y TAF

METAR FOR LGSK
ADDS - METARS form results

(1340 UTC 26 February 2021)
Data provider http://aviationweather.gov/metar/data/
 
Forecast for: LGSK (SKIATHOS ISLAND , GR)
Text: TAF LGSK 261100Z 2612/2621 VRB05KT 9999 FEW018
Forecast period: 1200 to 2100 UTC 26 February 2021
Forecast type: FROM: standard forecast or significant change
Winds: variable direction winds at 6 MPH (5 knots; 2.6 m/s)
Visibility: 6 or more miles (10+ km)
Ceiling: at least 12,000 feet AGL
Clouds: few clouds at 1800 feet AGL
Weather: no significant weather forecast for this period